createdAt,value
2023-03-29T10:14:38.441Z,2.70
2023-03-29T10:15:42.004Z,3.07
2023-03-29T10:16:47.885Z,3.85
2023-03-29T10:17:58.911Z,3.92
2023-03-29T10:19:17.786Z,3.53
2023-03-29T10:20:22.009Z,3.10
2023-03-29T10:21:25.642Z,3.88
2023-03-29T10:22:34.790Z,3.35
2023-03-29T10:23:39.480Z,2.80
2023-03-29T10:24:50.150Z,3.10
2023-03-29T10:25:53.293Z,3.75
2023-03-29T10:27:01.818Z,3.00
2023-03-29T10:28:08.968Z,2.38
2023-03-29T10:29:14.611Z,3.70
2023-03-29T10:30:25.418Z,3.95
2023-03-29T10:31:33.321Z,2.85
2023-03-29T10:32:38.017Z,3.22
2023-03-29T10:33:41.977Z,3.53
2023-03-29T10:34:47.213Z,3.65
2023-03-29T10:35:51.371Z,2.72
2023-03-29T10:36:59.932Z,2.95
2023-03-29T10:38:08.149Z,2.70
2023-03-29T10:39:14.834Z,3.08
2023-03-29T10:40:22.263Z,2.72
2023-03-29T10:41:27.335Z,2.70
2023-03-29T10:42:29.925Z,2.10
2023-03-29T10:43:38.716Z,2.00
2023-03-29T10:44:42.387Z,2.42
2023-03-29T10:45:50.075Z,2.80
2023-03-29T10:46:53.961Z,2.72
2023-03-29T10:47:58.295Z,2.42
2023-03-29T10:49:06.347Z,2.30
2023-03-29T10:50:15.494Z,2.40
2023-03-29T10:51:20.590Z,2.75
2023-03-29T10:52:24.236Z,2.47
2023-03-29T10:53:28.867Z,2.20
2023-03-29T10:54:32.805Z,2.90
2023-03-29T10:55:42.794Z,2.15
2023-03-29T10:56:52.488Z,2.60
2023-03-29T10:58:07.668Z,2.25
2023-03-29T10:59:25.642Z,2.38
2023-03-29T11:00:36.032Z,2.40
2023-03-29T11:01:52.615Z,2.88
2023-03-29T11:03:23.480Z,2.90
2023-03-29T11:04:38.842Z,2.85
2023-03-29T11:05:49.273Z,3.05
2023-03-29T11:07:14.499Z,2.90
2023-03-29T11:08:32.038Z,2.30
2023-03-29T11:09:48.868Z,3.38
2023-03-29T11:11:02.707Z,2.85
2023-03-29T11:12:16.070Z,2.40
2023-03-29T11:13:27.611Z,2.73
2023-03-29T11:14:39.010Z,2.40
2023-03-29T11:15:59.754Z,2.42
2023-03-29T11:17:14.486Z,2.20
2023-03-29T11:18:42.905Z,2.45
2023-03-29T11:20:14.522Z,2.20
2023-03-29T11:21:28.497Z,2.60
2023-03-29T11:22:42.665Z,2.72
2023-03-29T11:23:55.959Z,3.00
2023-03-29T11:25:21.820Z,3.45
2023-03-29T11:26:29.077Z,2.30
2023-03-29T11:27:39.075Z,2.22
2023-03-29T11:28:49.527Z,3.58
2023-03-29T11:30:06.729Z,2.80
2023-03-29T11:31:20.608Z,2.35
2023-03-29T11:32:32.465Z,3.20
2023-03-29T11:33:49.039Z,3.97
2023-03-29T11:35:04.594Z,2.53
2023-03-29T11:36:13.960Z,2.33
2023-03-29T11:37:23.030Z,2.40
2023-03-29T11:38:33.842Z,2.20
2023-03-29T11:39:50.287Z,2.55
2023-03-29T11:41:02.432Z,2.53
2023-03-29T11:42:13.688Z,2.50
2023-03-29T11:43:21.137Z,2.10
2023-03-29T11:44:28.510Z,2.33
2023-03-29T11:45:35.970Z,2.63
2023-03-29T11:46:45.626Z,2.88
2023-03-29T11:47:50.931Z,2.75
2023-03-29T11:49:00.920Z,3.03
2023-03-29T11:50:11.293Z,2.83
2023-03-29T11:51:22.722Z,2.88
2023-03-29T11:52:31.682Z,3.15
2023-03-29T11:53:43.547Z,3.42
2023-03-29T11:54:53.277Z,2.33
2023-03-29T11:55:57.244Z,3.67
2023-03-29T11:57:04.185Z,2.50
2023-03-29T11:58:13.010Z,2.50
2023-03-29T11:59:22.565Z,2.50
2023-03-29T12:00:30.673Z,2.60
2023-03-29T12:01:40.198Z,2.20
2023-03-29T12:02:48.290Z,2.60
2023-03-29T12:03:57.272Z,2.40
2023-03-29T12:05:08.232Z,2.05
2023-03-29T12:06:19.054Z,2.42
2023-03-29T12:07:29.502Z,2.70
2023-03-29T12:08:35.769Z,2.75
2023-03-29T12:09:47.035Z,3.60
2023-03-29T12:10:57.643Z,2.10
2023-03-29T12:12:09.830Z,2.00
2023-03-29T12:13:20.904Z,2.37
2023-03-29T12:14:29.659Z,2.85
2023-03-29T12:15:37.136Z,2.55
2023-03-29T12:16:45.117Z,2.60
2023-03-29T12:17:53.784Z,2.50
2023-03-29T12:19:01.732Z,2.40
2023-03-29T12:20:12.558Z,3.17
2023-03-29T12:21:20.282Z,3.33
2023-03-29T12:22:23.318Z,2.80
2023-03-29T12:23:27.569Z,2.47
2023-03-29T12:24:33.955Z,2.70
2023-03-29T12:25:52.287Z,2.45
2023-03-29T12:27:20.921Z,2.22
2023-03-29T12:28:42.666Z,2.58
2023-03-29T12:30:01.400Z,2.10
2023-03-29T12:31:18.863Z,2.15
2023-03-29T12:32:35.281Z,2.83
2023-03-29T12:34:26.283Z,2.83
2023-03-29T12:35:39.225Z,2.50
2023-03-29T12:37:04.861Z,2.67
2023-03-29T12:38:17.183Z,2.57
2023-03-29T12:39:21.781Z,2.83
2023-03-29T12:40:28.535Z,2.60
2023-03-29T12:41:38.622Z,2.85
2023-03-29T12:42:46.387Z,2.25
2023-03-29T12:43:50.856Z,2.42
2023-03-29T12:44:59.213Z,2.80
2023-03-29T12:46:08.949Z,3.80
2023-03-29T12:47:21.650Z,2.63
2023-03-29T12:48:28.007Z,2.78
2023-03-29T12:49:35.712Z,2.07
2023-03-29T12:50:47.430Z,2.95
2023-03-29T12:51:51.512Z,2.97
2023-03-29T12:52:54.269Z,3.15
2023-03-29T12:54:07.581Z,2.80
2023-03-29T12:55:25.363Z,2.67
2023-03-29T12:56:40.505Z,3.28
2023-03-29T12:57:47.681Z,3.05
2023-03-29T12:58:56.315Z,3.15
2023-03-29T13:00:12.971Z,3.60
2023-03-29T13:01:29.754Z,3.83
2023-03-29T13:02:39.598Z,2.90
2023-03-29T13:03:48.622Z,3.28
2023-03-29T13:04:55.542Z,2.92
2023-03-29T13:06:05.582Z,3.13
2023-03-29T13:07:15.689Z,2.75
2023-03-29T13:08:23.136Z,2.88
2023-03-29T13:09:30.171Z,2.78
2023-03-29T13:10:41.360Z,3.55
2023-03-29T13:11:45.212Z,3.42
2023-03-29T13:12:51.136Z,3.20
2023-03-29T13:13:55.002Z,2.45
2023-03-29T13:15:00.638Z,2.92
2023-03-29T13:16:16.706Z,2.47
2023-03-29T13:17:26.224Z,3.13
2023-03-29T13:18:43.718Z,2.95
2023-03-29T13:19:52.240Z,4.22
2023-03-29T13:21:03.799Z,3.42
2023-03-29T13:22:23.811Z,2.90
2023-03-29T13:23:36.531Z,2.92
2023-03-29T13:25:04.468Z,3.10
2023-03-29T13:26:19.864Z,2.75
2023-03-29T13:27:37.385Z,3.10
2023-03-29T13:28:58.296Z,2.25
2023-03-29T13:30:27.834Z,3.28
2023-03-29T13:31:37.728Z,3.38
2023-03-29T13:32:49.915Z,2.67
2023-03-29T13:34:03.967Z,3.10
2023-03-29T13:35:18.537Z,3.10
2023-03-29T13:36:36.687Z,2.45
2023-03-29T13:37:49.032Z,2.87
2023-03-29T13:38:56.133Z,3.05
2023-03-29T13:40:00.416Z,3.20
2023-03-29T13:41:05.982Z,3.22
2023-03-29T13:42:19.634Z,2.75
2023-03-29T13:43:31.071Z,2.50
2023-03-29T13:44:44.560Z,2.63
2023-03-29T13:46:05.195Z,2.63
2023-03-29T13:47:28.940Z,3.05
2023-03-29T13:48:49.420Z,2.60
2023-03-29T13:49:58.465Z,2.70
2023-03-29T13:51:08.297Z,2.92
2023-03-29T13:52:17.893Z,2.72
2023-03-29T13:53:30.446Z,2.78
2023-03-29T13:54:39.620Z,2.65
2023-03-29T13:55:48.799Z,2.40
2023-03-29T13:57:01.610Z,2.65
2023-03-29T13:58:11.806Z,2.58
2023-03-29T13:59:19.734Z,1.90
2023-03-29T14:00:27.278Z,2.60
2023-03-29T14:01:37.859Z,3.10
2023-03-29T14:02:47.417Z,2.28
2023-03-29T14:03:53.782Z,2.30
2023-03-29T14:04:59.963Z,2.72
2023-03-29T14:06:04.910Z,2.42
2023-03-29T14:07:10.837Z,3.15
2023-03-29T14:08:21.501Z,3.17
2023-03-29T14:09:31.855Z,2.40
2023-03-29T14:10:39.702Z,2.95
2023-03-29T14:11:45.956Z,2.83
2023-03-29T14:12:50.051Z,2.70
2023-03-29T14:13:54.104Z,2.40
2023-03-29T14:15:03.724Z,2.78
2023-03-29T14:16:10.500Z,2.90
2023-03-29T14:17:21.324Z,2.63
2023-03-29T14:18:27.125Z,2.80
2023-03-29T14:19:32.778Z,3.35
2023-03-29T14:20:36.269Z,2.55
2023-03-29T14:21:38.776Z,3.00
2023-03-29T14:22:44.549Z,3.22
2023-03-29T14:23:55.102Z,2.67
2023-03-29T14:25:02.840Z,2.95
2023-03-29T14:26:10.714Z,2.00
2023-03-29T14:27:14.548Z,3.03
2023-03-29T14:28:22.847Z,3.30
2023-03-29T14:29:32.687Z,2.83
2023-03-29T14:30:36.280Z,2.40
2023-03-29T14:31:42.101Z,3.28
2023-03-29T14:32:44.785Z,2.10
2023-03-29T14:33:53.792Z,2.33
2023-03-29T14:34:58.188Z,2.53
2023-03-29T14:36:05.296Z,2.53
2023-03-29T14:37:11.619Z,2.80
2023-03-29T14:38:16.767Z,3.20
2023-03-29T14:39:21.392Z,2.30
2023-03-29T14:40:28.480Z,2.70
2023-03-29T14:41:33.682Z,2.00
2023-03-29T14:42:38.933Z,2.97
2023-03-29T14:43:42.763Z,3.80
2023-03-29T14:44:45.269Z,2.78
2023-03-29T14:45:49.426Z,2.67
2023-03-29T14:46:53.591Z,2.72
2023-03-29T14:47:58.162Z,2.67
2023-03-29T14:49:02.393Z,3.50
2023-03-29T14:50:07.339Z,2.70
2023-03-29T14:51:11.683Z,3.30
2023-03-29T14:52:14.907Z,2.90
2023-03-29T14:53:21.367Z,1.98
2023-03-29T14:54:28.748Z,2.80
2023-03-29T14:55:34.472Z,2.85
2023-03-29T14:56:38.616Z,2.63
2023-03-29T14:57:43.101Z,3.38
2023-03-29T14:58:48.307Z,3.22
2023-03-29T14:59:58.346Z,2.53
2023-03-29T15:01:06.474Z,2.53
2023-03-29T15:02:23.822Z,2.45
2023-03-29T15:03:27.783Z,2.58
2023-03-29T15:04:34.968Z,1.83
2023-03-29T15:05:41.298Z,2.67
2023-03-29T15:06:47.244Z,2.42
2023-03-29T15:07:51.040Z,2.47
2023-03-29T15:09:05.500Z,1.98
2023-03-29T15:10:18.740Z,2.00
2023-03-29T15:11:24.858Z,2.85
2023-03-29T15:12:30.855Z,2.20
2023-03-29T15:13:34.447Z,2.47
2023-03-29T15:14:38.315Z,2.20
2023-03-29T15:15:42.011Z,2.03
2023-03-29T15:16:47.522Z,2.78
2023-03-29T15:17:52.760Z,3.20
2023-03-29T15:18:56.741Z,3.17
2023-03-29T15:20:01.679Z,2.25
2023-03-29T15:21:06.732Z,2.72
2023-03-29T15:22:11.954Z,2.55
2023-03-29T15:23:25.490Z,2.58
2023-03-29T15:24:32.164Z,2.47
2023-03-29T15:25:36.788Z,3.38
2023-03-29T15:26:43.198Z,2.40
2023-03-29T15:27:49.200Z,1.92
2023-03-29T15:28:56.068Z,2.40
2023-03-29T15:30:04.171Z,2.80
2023-03-29T15:31:12.409Z,2.38
2023-03-29T15:32:22.986Z,2.42
2023-03-29T15:33:33.014Z,2.92
2023-03-29T15:34:38.483Z,2.30
2023-03-29T15:35:41.265Z,2.40
2023-03-29T15:36:46.602Z,2.05
2023-03-29T15:37:49.495Z,3.78
2023-03-29T15:38:53.389Z,2.38
2023-03-29T15:39:56.900Z,3.10
2023-03-29T15:41:01.891Z,2.50
2023-03-29T15:42:07.978Z,2.88
2023-03-29T15:43:12.463Z,2.92
2023-03-29T15:44:18.800Z,2.65
2023-03-29T15:45:22.550Z,2.72
2023-03-29T15:46:26.455Z,2.60
2023-03-29T15:47:30.283Z,2.78
2023-03-29T15:48:34.670Z,2.70
2023-03-29T15:49:37.498Z,2.65
2023-03-29T15:50:41.026Z,2.53
2023-03-29T15:51:44.681Z,2.30
2023-03-29T15:52:47.241Z,2.05
2023-03-29T15:53:50.992Z,2.53
2023-03-29T15:54:53.341Z,2.10
2023-03-29T15:56:01.673Z,2.85
2023-03-29T15:57:08.055Z,2.25
2023-03-29T15:58:15.741Z,2.75
2023-03-29T15:59:19.618Z,2.20
2023-03-29T16:00:22.642Z,2.72
2023-03-29T16:01:35.795Z,3.13
2023-03-29T16:02:38.872Z,2.40
2023-03-29T16:03:47.618Z,2.38
2023-03-29T16:04:52.557Z,2.67
2023-03-29T16:05:57.089Z,2.42
2023-03-29T16:07:01.500Z,2.13
2023-03-29T16:08:05.213Z,2.00
2023-03-29T16:09:09.004Z,2.63
2023-03-29T16:10:12.637Z,2.20
2023-03-29T16:11:15.468Z,3.03
2023-03-29T16:12:20.707Z,3.13
2023-03-29T16:13:23.065Z,2.67
2023-03-29T16:14:31.349Z,2.83
2023-03-29T16:15:37.674Z,2.65
2023-03-29T16:16:40.300Z,2.50
2023-03-29T16:17:43.918Z,2.83
2023-03-29T16:18:46.449Z,2.42
2023-03-29T16:19:50.155Z,2.50
2023-03-29T16:20:53.762Z,2.75
2023-03-29T16:21:57.297Z,2.65
2023-03-29T16:22:59.723Z,2.30
2023-03-29T16:24:03.950Z,2.80
2023-03-29T16:25:13.988Z,2.55
2023-03-29T16:26:18.492Z,2.45
2023-03-29T16:27:22.590Z,2.30
2023-03-29T16:28:26.450Z,2.20
2023-03-29T16:29:30.404Z,2.97
2023-03-29T16:30:34.403Z,2.75
2023-03-29T16:31:36.979Z,3.13
2023-03-29T16:32:40.832Z,2.65
2023-03-29T16:33:44.581Z,3.40
2023-03-29T16:34:47.376Z,2.50
2023-03-29T16:35:51.020Z,2.45
2023-03-29T16:36:53.880Z,2.70
2023-03-29T16:37:57.905Z,2.72
2023-03-29T16:39:00.672Z,2.80
2023-03-29T16:40:07.815Z,2.63
2023-03-29T16:41:15.637Z,2.85
2023-03-29T16:42:19.127Z,3.00
2023-03-29T16:43:22.881Z,2.75
2023-03-29T16:44:28.064Z,2.63
2023-03-29T16:45:30.349Z,2.33
2023-03-29T16:46:34.272Z,2.88
2023-03-29T16:47:37.870Z,2.47
2023-03-29T16:48:40.367Z,2.38
2023-03-29T16:49:45.847Z,3.55
2023-03-29T16:50:49.502Z,3.47
2023-03-29T16:51:53.258Z,2.78
2023-03-29T16:52:56.858Z,2.33
2023-03-29T16:54:00.766Z,2.15
2023-03-29T16:55:04.197Z,2.50
2023-03-29T16:56:09.080Z,2.37
2023-03-29T16:57:11.480Z,2.35
2023-03-29T16:58:15.593Z,2.38
2023-03-29T16:59:19.753Z,1.92
2023-03-29T17:00:23.768Z,3.08
2023-03-29T17:01:27.956Z,2.22
2023-03-29T17:02:31.397Z,3.30
2023-03-29T17:03:35.155Z,2.85
2023-03-29T17:04:38.775Z,2.35
2023-03-29T17:05:48.472Z,3.45
2023-03-29T17:06:52.272Z,2.93
2023-03-29T17:07:56.982Z,2.45
2023-03-29T17:09:00.991Z,2.83
2023-03-29T17:10:04.902Z,2.10
2023-03-29T17:11:08.604Z,2.53
2023-03-29T17:12:12.440Z,2.13
2023-03-29T17:13:14.981Z,2.85
2023-03-29T17:14:18.894Z,2.65
2023-03-29T17:15:24.368Z,2.50
2023-03-29T17:16:29.360Z,1.75
2023-03-29T17:17:33.122Z,2.67
2023-03-29T17:18:36.856Z,3.03
2023-03-29T17:19:40.262Z,2.67
2023-03-29T17:20:43.724Z,2.90
2023-03-29T17:21:47.235Z,2.75
2023-03-29T17:22:52.361Z,2.38
2023-03-29T17:23:55.816Z,3.00
2023-03-29T17:24:59.127Z,2.58
2023-03-29T17:26:02.340Z,3.33
2023-03-29T17:27:06.404Z,2.75
2023-03-29T17:28:08.927Z,3.20
2023-03-29T17:29:12.268Z,3.05
2023-03-29T17:30:16.770Z,2.85
2023-03-29T17:31:21.708Z,2.53
2023-03-29T17:32:24.158Z,2.13
2023-03-29T17:33:27.771Z,2.92
2023-03-29T17:34:31.038Z,2.67
2023-03-29T17:35:34.453Z,2.47
2023-03-29T17:36:37.855Z,3.28
2023-03-29T17:37:40.409Z,3.25
2023-03-29T17:38:43.828Z,3.63
2023-03-29T17:39:46.266Z,3.13
2023-03-29T17:40:54.298Z,3.63
2023-03-29T17:41:57.130Z,3.08
2023-03-29T17:43:00.722Z,2.33
2023-03-29T17:44:04.326Z,2.25
2023-03-29T17:45:09.034Z,2.97
2023-03-29T17:46:11.900Z,3.10
2023-03-29T17:47:17.078Z,3.05
2023-03-29T17:48:19.801Z,2.65
2023-03-29T17:49:23.420Z,2.33
2023-03-29T17:50:26.396Z,4.28
2023-03-29T17:51:29.885Z,2.83
2023-03-29T17:52:33.454Z,3.45
2023-03-29T17:53:36.306Z,3.78
2023-03-29T17:54:39.639Z,2.55
2023-03-29T17:55:43.248Z,2.97
2023-03-29T17:56:47.608Z,2.45
2023-03-29T17:57:50.243Z,3.22
2023-03-29T17:58:53.806Z,3.20
2023-03-29T17:59:57.538Z,3.23
2023-03-29T18:01:01.052Z,2.80
2023-03-29T18:02:05.617Z,3.53
2023-03-29T18:03:10.730Z,3.60
2023-03-29T18:04:14.179Z,2.70
2023-03-29T18:05:16.807Z,2.78
2023-03-29T18:06:21.087Z,2.83
2023-03-29T18:07:23.541Z,4.28
2023-03-29T18:08:27.335Z,3.85
2023-03-29T18:09:31.108Z,3.35
2023-03-29T18:10:35.230Z,3.57
2023-03-29T18:11:38.676Z,2.90
2023-03-29T18:12:42.265Z,5.20
2023-03-29T18:13:44.979Z,3.65
2023-03-29T18:14:48.800Z,3.63
2023-03-29T18:15:56.771Z,3.13
2023-03-29T18:17:00.353Z,3.20
2023-03-29T18:18:04.015Z,3.35
2023-03-29T18:19:10.860Z,3.47
2023-03-29T18:20:13.760Z,4.50
2023-03-29T18:21:18.506Z,3.57
2023-03-29T18:22:21.203Z,5.03
2023-03-29T18:23:24.602Z,4.47
2023-03-29T18:24:27.606Z,3.92
2023-03-29T18:25:31.360Z,4.18
2023-03-29T18:26:33.927Z,5.15
2023-03-29T18:27:37.534Z,3.92
2023-03-29T18:28:41.035Z,3.55
2023-03-29T18:29:45.035Z,3.70
2023-03-29T18:30:50.983Z,4.47
2023-03-29T18:31:54.546Z,3.63
2023-03-29T18:32:58.544Z,3.50
2023-03-29T18:34:02.824Z,3.85
2023-03-29T18:35:08.836Z,4.25
2023-03-29T18:36:13.324Z,4.95
2023-03-29T18:37:17.691Z,4.57
2023-03-29T18:38:22.628Z,5.30
2023-03-29T18:39:27.456Z,3.95
2023-03-29T18:40:29.873Z,5.10
2023-03-29T18:41:33.563Z,3.97
2023-03-29T18:42:37.609Z,5.60
2023-03-29T18:43:41.562Z,4.22
2023-03-29T18:44:45.085Z,4.93
2023-03-29T18:45:47.769Z,5.30
2023-03-29T18:46:51.656Z,3.67
2023-03-29T18:47:55.034Z,4.68
2023-03-29T18:48:57.740Z,5.57
2023-03-29T18:50:02.613Z,4.55
2023-03-29T18:51:07.733Z,5.10
2023-03-29T18:52:11.681Z,4.70
2023-03-29T18:53:14.973Z,4.27
2023-03-29T18:54:18.534Z,4.18
2023-03-29T18:55:21.020Z,5.07
2023-03-29T18:56:24.738Z,4.70
2023-03-29T18:57:28.147Z,5.28
2023-03-29T18:58:30.838Z,4.22
2023-03-29T18:59:37.198Z,5.90
2023-03-29T19:00:40.744Z,4.68
2023-03-29T19:01:45.093Z,4.68
2023-03-29T19:02:48.766Z,4.35
2023-03-29T19:03:51.251Z,5.10
2023-03-29T19:04:54.815Z,4.43
2023-03-29T19:05:58.824Z,5.32
2023-03-29T19:07:03.750Z,4.63
2023-03-29T19:08:09.190Z,4.65
2023-03-29T19:09:12.913Z,4.85
2023-03-29T19:10:15.705Z,3.70
2023-03-29T19:11:19.249Z,4.75
2023-03-29T19:12:22.595Z,4.85
2023-03-29T19:13:25.162Z,5.18
2023-03-29T19:14:29.523Z,4.83
2023-03-29T19:15:34.084Z,5.07
2023-03-29T19:16:37.612Z,4.32
2023-03-29T19:17:41.380Z,4.93
2023-03-29T19:18:43.854Z,4.82
2023-03-29T19:19:47.285Z,5.57
2023-03-29T19:20:51.068Z,3.90
2023-03-29T19:21:55.846Z,4.32
2023-03-29T19:23:02.025Z,5.95
2023-03-29T19:24:05.771Z,4.57
2023-03-29T19:25:10.325Z,4.83
2023-03-29T19:26:13.561Z,4.70
2023-03-29T19:27:17.068Z,4.90
2023-03-29T19:28:19.395Z,6.05
2023-03-29T19:29:23.093Z,4.35
2023-03-29T19:30:26.040Z,5.75
2023-03-29T19:31:30.312Z,5.78
2023-03-29T19:32:33.810Z,4.75
2023-03-29T19:33:37.397Z,4.57
2023-03-29T19:34:41.017Z,4.55
2023-03-29T19:35:45.730Z,4.80
2023-03-29T19:36:49.488Z,5.03
2023-03-29T19:37:51.978Z,4.72
2023-03-29T19:38:56.804Z,4.82
2023-03-29T19:40:00.303Z,5.80
2023-03-29T19:41:03.887Z,4.10
2023-03-29T19:42:07.505Z,6.78
2023-03-29T19:43:16.445Z,4.82
2023-03-29T19:44:22.332Z,4.32
2023-03-29T19:45:24.837Z,5.88
2023-03-29T19:46:29.195Z,6.03
2023-03-29T19:47:31.810Z,5.55
2023-03-29T19:48:35.482Z,5.20
2023-03-29T19:49:38.652Z,5.97
2023-03-29T19:50:43.073Z,6.15
2023-03-29T19:51:48.467Z,6.18
2023-03-29T19:52:51.367Z,6.18
2023-03-29T19:53:57.029Z,5.82
2023-03-29T19:54:59.418Z,6.90
2023-03-29T19:56:04.412Z,4.78
2023-03-29T19:57:09.340Z,5.00
2023-03-29T19:58:13.242Z,4.68
2023-03-29T19:59:17.910Z,4.60
2023-03-29T20:00:24.606Z,5.90
2023-03-29T20:01:27.414Z,6.15
2023-03-29T20:02:31.462Z,5.47
2023-03-29T20:03:34.552Z,6.57
2023-03-29T20:04:38.772Z,5.53
2023-03-29T20:05:41.174Z,6.20
2023-03-29T20:06:44.744Z,5.03
2023-03-29T20:07:47.254Z,5.47
2023-03-29T20:08:50.785Z,4.65
2023-03-29T20:09:55.976Z,5.00
2023-03-29T20:10:59.924Z,6.00
2023-03-29T20:12:02.509Z,5.47
2023-03-29T20:13:06.774Z,5.53
2023-03-29T20:14:09.471Z,5.40
2023-03-29T20:15:13.305Z,6.20
2023-03-29T20:16:17.111Z,5.72
2023-03-29T20:17:21.242Z,5.32
2023-03-29T20:18:24.706Z,5.90
2023-03-29T20:19:30.287Z,6.43
2023-03-29T20:20:35.780Z,6.88
2023-03-29T20:21:39.075Z,5.35
2023-03-29T20:22:45.421Z,6.13
2023-03-29T20:23:49.085Z,5.93
2023-03-29T20:24:51.333Z,5.68
2023-03-29T20:25:57.233Z,5.43
2023-03-29T20:26:59.624Z,6.35
2023-03-29T20:28:03.152Z,5.45
2023-03-29T20:29:06.477Z,5.23
2023-03-29T20:30:12.127Z,5.10
2023-03-29T20:31:14.594Z,5.88
2023-03-29T20:32:18.309Z,5.53
2023-03-29T20:33:22.857Z,6.30
2023-03-29T20:34:26.496Z,5.47
2023-03-29T20:35:29.208Z,4.97
2023-03-29T20:36:32.794Z,5.22
2023-03-29T20:37:35.619Z,5.80
2023-03-29T20:38:39.387Z,5.80
2023-03-29T20:39:43.515Z,5.33
2023-03-29T20:40:47.663Z,5.88
2023-03-29T20:41:55.756Z,5.68
2023-03-29T20:42:59.417Z,6.22
2023-03-29T20:44:03.248Z,5.63
2023-03-29T20:45:09.129Z,5.68
2023-03-29T20:46:14.831Z,6.22
2023-03-29T20:47:19.439Z,6.30
2023-03-29T20:48:23.573Z,5.57
2023-03-29T20:49:27.381Z,5.60
2023-03-29T20:50:30.093Z,5.50
2023-03-29T20:51:34.336Z,6.18
2023-03-29T20:52:37.637Z,5.72
2023-03-29T20:53:42.943Z,6.45
2023-03-29T20:54:46.803Z,6.05
2023-03-29T20:55:49.228Z,5.70
2023-03-29T20:56:56.076Z,6.25
2023-03-29T20:57:58.780Z,5.53
2023-03-29T20:59:04.182Z,5.35
2023-03-29T21:00:12.629Z,5.65
2023-03-29T21:01:16.316Z,5.67
2023-03-29T21:02:22.085Z,6.57
2023-03-29T21:03:25.853Z,5.75
2023-03-29T21:04:29.946Z,5.82
2023-03-29T21:05:33.751Z,6.53
2023-03-29T21:06:39.711Z,7.07
2023-03-29T21:07:44.949Z,6.00
2023-03-29T21:08:49.025Z,6.20
2023-03-29T21:09:52.753Z,5.93
2023-03-29T21:10:56.396Z,6.70
2023-03-29T21:12:01.654Z,5.83
2023-03-29T21:13:06.179Z,5.93
2023-03-29T21:14:09.547Z,6.13
2023-03-29T21:15:14.716Z,7.05
2023-03-29T21:16:17.154Z,5.68
2023-03-29T21:17:20.713Z,5.88
2023-03-29T21:18:23.713Z,6.07
2023-03-29T21:19:27.464Z,5.63
2023-03-29T21:20:32.461Z,5.40
2023-03-29T21:21:36.156Z,5.15
2023-03-29T21:22:42.904Z,5.97
2023-03-29T21:23:45.563Z,5.95
2023-03-29T21:24:49.081Z,5.00
2023-03-29T21:25:51.616Z,4.80
2023-03-29T21:26:55.059Z,5.13
2023-03-29T21:27:59.019Z,4.53
2023-03-29T21:29:02.976Z,5.07
2023-03-29T21:30:08.685Z,5.00
2023-03-29T21:31:12.092Z,5.60
2023-03-29T21:32:14.588Z,4.90
2023-03-29T21:33:18.243Z,4.87
2023-03-29T21:34:22.362Z,5.15
2023-03-29T21:35:25.083Z,5.72
2023-03-29T21:36:29.003Z,5.93
2023-03-29T21:37:31.428Z,4.88
2023-03-29T21:38:34.870Z,4.95
2023-03-29T21:39:37.337Z,4.63
2023-03-29T21:40:41.197Z,4.50
2023-03-29T21:41:43.681Z,3.95
2023-03-29T21:42:47.297Z,3.95
2023-03-29T21:43:51.617Z,4.30
2023-03-29T21:44:54.959Z,3.90
2023-03-29T21:45:57.975Z,3.80
2023-03-29T21:47:01.595Z,4.65
2023-03-29T21:48:04.342Z,3.60
2023-03-29T21:49:08.296Z,3.92
2023-03-29T21:50:11.803Z,5.15
2023-03-29T21:51:15.641Z,4.38
2023-03-29T21:52:17.843Z,3.70
2023-03-29T21:53:21.652Z,4.03
2023-03-29T21:54:25.232Z,4.60
2023-03-29T21:55:27.998Z,4.57
2023-03-29T21:56:31.594Z,5.00
2023-03-29T21:57:35.193Z,4.95
2023-03-29T21:58:38.780Z,4.90
2023-03-29T21:59:42.591Z,4.93
2023-03-29T22:00:47.104Z,5.82
2023-03-29T22:01:49.946Z,4.70
2023-03-29T22:02:53.684Z,5.45
2023-03-29T22:03:56.961Z,4.97
2023-03-29T22:05:00.525Z,5.23
2023-03-29T22:06:05.710Z,4.70
2023-03-29T22:07:10.842Z,5.20
2023-03-29T22:08:13.322Z,5.15
2023-03-29T22:09:16.850Z,6.28
2023-03-29T22:10:23.076Z,4.38
2023-03-29T22:11:28.750Z,5.72
2023-03-29T22:12:32.501Z,5.50
2023-03-29T22:13:36.441Z,3.70
2023-03-29T22:14:39.516Z,5.15
2023-03-29T22:15:45.278Z,4.70
2023-03-29T22:16:47.965Z,4.63
2023-03-29T22:17:53.489Z,5.07
2023-03-29T22:18:55.968Z,5.53
2023-03-29T22:19:59.621Z,4.80
2023-03-29T22:21:02.480Z,4.65
2023-03-29T22:22:07.371Z,4.70
2023-03-29T22:23:09.876Z,4.05
2023-03-29T22:24:13.581Z,4.35
2023-03-29T22:25:16.526Z,4.80
2023-03-29T22:26:22.391Z,5.13
2023-03-29T22:27:24.883Z,4.53
2023-03-29T22:28:28.226Z,4.90
2023-03-29T22:29:30.783Z,4.93
2023-03-29T22:30:34.042Z,4.20
2023-03-29T22:31:39.628Z,4.35
2023-03-29T22:32:44.077Z,4.93
2023-03-29T22:33:47.342Z,4.63
2023-03-29T22:34:51.152Z,5.07
2023-03-29T22:35:53.506Z,4.93
2023-03-29T22:36:57.032Z,5.00
2023-03-29T22:37:59.450Z,4.45
2023-03-29T22:39:03.039Z,4.00
2023-03-29T22:40:09.321Z,4.03
2023-03-29T22:41:13.601Z,3.90
2023-03-29T22:42:16.309Z,4.38
2023-03-29T22:43:21.687Z,4.35
2023-03-29T22:44:25.794Z,4.47
2023-03-29T22:45:29.464Z,4.00
2023-03-29T22:46:34.307Z,3.58
2023-03-29T22:47:40.910Z,3.67
2023-03-29T22:48:44.717Z,3.53
2023-03-29T22:49:50.295Z,3.25
2023-03-29T22:50:52.752Z,3.33
2023-03-29T22:51:56.270Z,4.00
2023-03-29T22:52:58.522Z,3.35
2023-03-29T22:54:01.788Z,3.33
2023-03-29T22:55:04.492Z,3.50
2023-03-29T22:56:09.551Z,2.97
2023-03-29T22:57:12.642Z,3.08
2023-03-29T22:58:16.939Z,2.97
2023-03-29T22:59:19.623Z,2.92
2023-03-29T23:00:23.551Z,2.83
2023-03-29T23:01:27.314Z,3.15
2023-03-29T23:02:29.701Z,2.78
2023-03-29T23:03:34.910Z,2.30
2023-03-29T23:04:38.821Z,2.40
2023-03-29T23:05:42.756Z,2.10
2023-03-29T23:06:45.138Z,2.13
2023-03-29T23:07:49.006Z,1.92
2023-03-29T23:08:51.409Z,1.90
2023-03-29T23:09:55.366Z,2.10
2023-03-29T23:10:58.031Z,2.00
2023-03-29T23:12:01.891Z,2.70
2023-03-29T23:13:08.788Z,1.80
2023-03-29T23:14:12.661Z,2.05
2023-03-29T23:15:16.275Z,1.70
2023-03-29T23:16:21.309Z,1.52
2023-03-29T23:17:24.208Z,1.95
2023-03-29T23:18:29.657Z,1.60
2023-03-29T23:19:33.787Z,1.80
2023-03-29T23:20:37.055Z,1.88
2023-03-29T23:21:39.755Z,1.90
2023-03-29T23:22:43.887Z,2.10
2023-03-29T23:23:47.081Z,1.67
2023-03-29T23:24:50.490Z,2.50
2023-03-29T23:25:53.716Z,1.60
2023-03-29T23:26:59.422Z,3.25
2023-03-29T23:28:01.927Z,2.38
2023-03-29T23:29:05.314Z,1.60
2023-03-29T23:30:08.940Z,2.07
2023-03-29T23:31:14.120Z,1.40
2023-03-29T23:32:16.834Z,2.05
2023-03-29T23:33:22.220Z,2.00
2023-03-29T23:34:26.148Z,1.48
2023-03-29T23:35:30.186Z,1.70
2023-03-29T23:36:33.883Z,2.20
2023-03-29T23:37:38.093Z,1.95
2023-03-29T23:38:42.507Z,1.90
2023-03-29T23:39:45.139Z,1.70
2023-03-29T23:40:59.213Z,2.17
2023-03-29T23:42:03.571Z,2.08
2023-03-29T23:43:07.149Z,1.63
2023-03-29T23:44:10.435Z,2.47
2023-03-29T23:45:15.977Z,1.75
2023-03-29T23:46:19.698Z,2.00
2023-03-29T23:47:23.735Z,2.22
2023-03-29T23:48:27.511Z,1.88
2023-03-29T23:49:32.023Z,2.30
2023-03-29T23:50:36.195Z,2.08
2023-03-29T23:51:42.782Z,2.20
2023-03-29T23:52:46.836Z,1.90
2023-03-29T23:53:50.690Z,2.25
2023-03-29T23:54:53.134Z,1.83
2023-03-29T23:55:58.552Z,1.92
2023-03-29T23:57:01.605Z,1.80
2023-03-29T23:58:05.460Z,1.92
2023-03-29T23:59:07.899Z,2.10
